createdAt,value
2019-06-20T00:01:02.134Z,97752.00
2019-06-20T00:06:09.044Z,97763.59
2019-06-20T00:11:15.550Z,97764.59
2019-06-20T00:16:22.212Z,97758.95
2019-06-20T00:21:28.691Z,97757.55
2019-06-20T00:26:35.246Z,97744.26
2019-06-20T00:31:41.895Z,97743.34
2019-06-20T00:36:51.244Z,97747.82
2019-06-20T00:41:56.745Z,97749.33
2019-06-20T00:47:03.375Z,97751.64
2019-06-20T00:52:10.012Z,97751.06
2019-06-20T00:57:16.571Z,97755.43
2019-06-20T01:02:23.202Z,97755.72
2019-06-20T01:07:29.713Z,97761.05
2019-06-20T01:12:36.331Z,97746.92
2019-06-20T01:17:42.953Z,97755.27
2019-06-20T01:22:49.630Z,97746.69
2019-06-20T01:27:56.201Z,97744.57
2019-06-20T01:33:02.683Z,97751.55
2019-06-20T01:38:09.448Z,97743.42
2019-06-20T01:43:16.975Z,97737.45
2019-06-20T01:48:23.670Z,97742.80
2019-06-20T01:53:30.232Z,97739.57
2019-06-20T01:58:36.864Z,97737.98
2019-06-20T02:03:44.227Z,97743.89
2019-06-20T02:08:50.872Z,97744.18
2019-06-20T02:14:06.830Z,97746.81
2019-06-20T02:19:05.859Z,97750.28
2019-06-20T02:24:12.429Z,97800.52
2019-06-20T02:29:19.124Z,97771.64
2019-06-20T02:34:25.753Z,97784.95
2019-06-20T02:39:32.374Z,97788.73
2019-06-20T02:44:39.003Z,97785.77
2019-06-20T02:49:45.569Z,97796.66
2019-06-20T02:54:52.205Z,97780.53
2019-06-20T02:59:58.849Z,97818.99
2019-06-20T03:05:05.954Z,97784.03
2019-06-20T03:10:12.889Z,97804.17
2019-06-20T03:15:19.642Z,97797.05
2019-06-20T03:20:26.286Z,97801.48
2019-06-20T03:25:32.911Z,97812.83
2019-06-20T03:30:39.600Z,97804.02
2019-06-20T03:35:47.164Z,97811.84
2019-06-20T03:40:53.758Z,97817.03
2019-06-20T03:46:00.343Z,97835.19
2019-06-20T03:51:06.851Z,97866.80
2019-06-20T03:56:13.417Z,97868.33
2019-06-20T04:01:20.003Z,97870.39
2019-06-20T04:06:26.569Z,97894.47
2019-06-20T04:11:33.044Z,97914.58
2019-06-20T04:16:39.599Z,97937.30
2019-06-20T04:21:46.096Z,97932.84
2019-06-20T04:26:52.648Z,97947.22
2019-06-20T04:31:59.208Z,97980.27
2019-06-20T04:37:05.716Z,97992.52
2019-06-20T04:42:12.301Z,98012.97
2019-06-20T04:47:18.705Z,98042.53
2019-06-20T04:52:25.112Z,98059.16
2019-06-20T04:57:36.032Z,98061.05
2019-06-20T05:02:43.812Z,98058.76
2019-06-20T05:07:50.474Z,98063.11
2019-06-20T05:12:57.117Z,98070.66
2019-06-20T05:18:03.599Z,98049.58
2019-06-20T05:23:10.125Z,98048.71
2019-06-20T05:28:16.598Z,98048.93
2019-06-20T05:33:23.087Z,98046.97
2019-06-20T05:38:29.593Z,98039.25
2019-06-20T05:43:36.018Z,98035.77
2019-06-20T05:48:43.306Z,98066.80
2019-06-20T05:53:50.021Z,98061.17
2019-06-20T05:58:56.515Z,98053.77
2019-06-20T06:04:03.116Z,98057.33
2019-06-20T06:09:09.821Z,98055.16
2019-06-20T06:14:16.348Z,98030.30
2019-06-20T06:19:23.469Z,98019.66
2019-06-20T06:24:30.022Z,98012.84
2019-06-20T06:29:36.596Z,97995.55
2019-06-20T06:34:43.195Z,97989.05
2019-06-20T06:39:49.686Z,97993.81
2019-06-20T06:44:56.269Z,97996.95
2019-06-20T06:50:04.266Z,97985.68
2019-06-20T06:55:11.492Z,97975.36
2019-06-20T07:00:19.147Z,97979.02
2019-06-20T07:05:25.781Z,97975.81
2019-06-20T07:10:33.487Z,97971.34
2019-06-20T07:15:40.142Z,97975.98
2019-06-20T07:20:47.582Z,97978.73
2019-06-20T07:25:54.157Z,97981.83
2019-06-20T07:31:00.834Z,97977.34
2019-06-20T07:36:07.833Z,97979.69
2019-06-20T07:41:14.391Z,97980.67
2019-06-20T07:46:20.882Z,97980.21
2019-06-20T07:51:27.444Z,97988.11
2019-06-20T07:56:34.072Z,97976.11
2019-06-20T08:01:40.764Z,97985.69
2019-06-20T08:06:47.323Z,97985.30
2019-06-20T08:11:53.947Z,97994.95
2019-06-20T08:17:00.597Z,97996.40
2019-06-20T08:22:07.325Z,98007.56
2019-06-20T08:27:14.965Z,98008.65
2019-06-20T08:32:21.728Z,98012.27
2019-06-20T08:37:28.443Z,98015.45
2019-06-20T08:42:35.096Z,98006.19
2019-06-20T08:47:41.957Z,98008.94
2019-06-20T08:52:48.697Z,98010.50
2019-06-20T08:57:56.296Z,98011.67
2019-06-20T09:08:11.567Z,98002.73
2019-06-20T09:13:18.865Z,97991.52
2019-06-20T09:18:25.435Z,98008.16
2019-06-20T09:23:32.067Z,98010.88
2019-06-20T09:28:38.707Z,98017.73
2019-06-20T09:33:45.372Z,98025.59
2019-06-20T09:38:52.474Z,98023.40
2019-06-20T09:44:00.159Z,98025.30
2019-06-20T09:49:06.871Z,98030.22
2019-06-20T09:54:13.521Z,98037.80
2019-06-20T09:59:27.537Z,98041.45
2019-06-20T10:04:28.394Z,98041.89
2019-06-20T10:09:35.226Z,98039.60
2019-06-20T10:14:41.874Z,98050.45
2019-06-20T10:19:49.817Z,98046.61
2019-06-20T10:24:57.866Z,98047.13
2019-06-20T10:30:14.203Z,98052.03
2019-06-20T10:35:14.975Z,98055.05
2019-06-20T10:40:22.365Z,98059.75
2019-06-20T10:45:31.083Z,98049.95
2019-06-20T10:50:37.723Z,98051.70
2019-06-20T10:55:44.953Z,98057.05
2019-06-20T11:00:51.531Z,98051.31
2019-06-20T11:05:58.193Z,98056.19
2019-06-20T11:11:04.931Z,98055.50
2019-06-20T11:16:11.569Z,98059.25
2019-06-20T11:21:18.227Z,98063.52
2019-06-20T11:26:24.854Z,98061.13
2019-06-20T11:31:31.506Z,98058.58
2019-06-20T11:36:38.679Z,98049.99
2019-06-20T11:41:45.514Z,98047.13
2019-06-20T11:46:52.104Z,98042.80
2019-06-20T11:51:58.676Z,98040.67
2019-06-20T11:57:05.485Z,98036.41
2019-06-20T12:02:12.129Z,98034.11
2019-06-20T12:07:18.652Z,98032.69
2019-06-20T12:12:25.291Z,98042.19
2019-06-20T12:17:31.868Z,98033.84
2019-06-20T12:22:39.933Z,98040.79
2019-06-20T12:27:47.635Z,98027.28
2019-06-20T12:32:57.494Z,98022.55
2019-06-20T12:38:04.091Z,98018.33
2019-06-20T12:43:10.601Z,98018.81
2019-06-20T12:48:17.017Z,98017.13
2019-06-20T12:53:23.433Z,98017.33
2019-06-20T12:58:29.976Z,98010.64
2019-06-20T13:03:38.522Z,98002.89
2019-06-20T13:08:45.226Z,98006.77
2019-06-20T13:13:51.840Z,98006.93
2019-06-20T13:18:58.543Z,98008.87
2019-06-20T13:24:05.125Z,97999.66
2019-06-20T13:29:11.603Z,98003.63
2019-06-20T13:34:19.932Z,97996.04
2019-06-20T13:39:33.878Z,98002.40
2019-06-20T13:44:37.260Z,98002.48
2019-06-20T13:49:45.739Z,98001.07
2019-06-20T13:54:52.522Z,98003.16
2019-06-20T13:59:59.089Z,98000.80
2019-06-20T14:05:06.446Z,97996.06
2019-06-20T14:10:13.176Z,97991.91
2019-06-20T14:15:20.940Z,97982.69
2019-06-20T14:20:27.540Z,97982.84
2019-06-20T14:25:34.385Z,97976.75
2019-06-20T14:30:41.097Z,97973.88
2019-06-20T14:35:49.289Z,97964.78
2019-06-20T14:40:56.088Z,97974.03
2019-06-20T14:46:02.713Z,97975.28
2019-06-20T14:51:09.388Z,97973.30
2019-06-20T14:56:15.953Z,97963.81
2019-06-20T15:01:22.516Z,97962.19
2019-06-20T15:06:29.147Z,97961.14
2019-06-20T15:11:36.096Z,97952.14
2019-06-20T15:16:46.193Z,97945.39
2019-06-20T15:21:52.131Z,97942.78
2019-06-20T15:26:58.844Z,97942.83
2019-06-20T15:32:05.505Z,97933.56
2019-06-20T15:37:12.174Z,97931.41
2019-06-20T15:42:22.395Z,97932.19
2019-06-20T15:47:29.448Z,97929.06
2019-06-20T15:52:36.119Z,97937.83
2019-06-20T15:57:42.750Z,97936.51
2019-06-20T16:02:49.296Z,97945.16
2019-06-20T16:07:55.924Z,97945.08
2019-06-20T16:13:03.528Z,97955.45
2019-06-20T16:18:10.189Z,97961.59
2019-06-20T16:23:16.859Z,97965.08
2019-06-20T16:28:23.494Z,97967.94
2019-06-20T16:33:29.968Z,97965.24
2019-06-20T16:38:36.579Z,97981.05
2019-06-20T16:43:43.228Z,97981.68
2019-06-20T16:48:49.774Z,97980.05
2019-06-20T16:53:59.168Z,97991.17
2019-06-20T16:59:05.879Z,97990.26
2019-06-20T17:04:12.470Z,97986.42
2019-06-20T17:09:20.294Z,97992.62
2019-06-20T17:14:26.822Z,98002.05
2019-06-20T17:19:33.877Z,98011.36
2019-06-20T17:24:43.710Z,98006.02
2019-06-20T17:29:52.717Z,97996.40
2019-06-20T17:35:00.013Z,98002.27
2019-06-20T17:40:08.776Z,98005.79
2019-06-20T17:45:16.056Z,98011.61
2019-06-20T17:50:25.768Z,98013.48
2019-06-20T17:55:31.872Z,98022.20
2019-06-20T18:00:39.039Z,98022.05
2019-06-20T18:05:49.942Z,98024.98
2019-06-20T18:10:57.145Z,98043.66
2019-06-20T18:16:05.693Z,98061.74
2019-06-20T18:21:14.705Z,98072.95
2019-06-20T18:26:22.117Z,98080.80
2019-06-20T18:31:29.330Z,98080.56
2019-06-20T18:36:37.723Z,98080.94
2019-06-20T18:41:47.339Z,98084.73
2019-06-20T18:46:52.720Z,98089.82
2019-06-20T18:51:59.429Z,98094.64
2019-06-20T18:57:06.171Z,98103.09
2019-06-20T19:02:12.895Z,98113.83
2019-06-20T19:07:19.574Z,98120.45
2019-06-20T19:12:26.144Z,98124.31
2019-06-20T19:17:32.642Z,98128.38
2019-06-20T19:22:39.368Z,98136.82
2019-06-20T19:27:47.026Z,98137.66
2019-06-20T19:32:55.043Z,98133.61
2019-06-20T19:38:01.553Z,98149.63
2019-06-20T19:43:08.270Z,98148.87
2019-06-20T19:48:15.234Z,98154.88
2019-06-20T19:53:21.861Z,98166.84
2019-06-20T19:58:28.527Z,98174.72
2019-06-20T20:03:35.348Z,98183.94
2019-06-20T20:08:42.021Z,98182.05
2019-06-20T20:13:48.637Z,98177.13
2019-06-20T20:18:55.260Z,98178.48
2019-06-20T20:24:01.862Z,98181.98
2019-06-20T20:29:09.628Z,98187.31
2019-06-20T20:34:16.076Z,98183.56
2019-06-20T20:39:22.597Z,98185.72
2019-06-20T20:44:29.838Z,98183.52
2019-06-20T20:49:36.336Z,98182.09
2019-06-20T20:54:42.756Z,98181.47
2019-06-20T20:59:49.355Z,98181.93
2019-06-20T21:04:55.966Z,98179.67
2019-06-20T21:10:02.612Z,98179.48
2019-06-20T21:15:09.819Z,98185.09
2019-06-20T21:20:17.151Z,98200.16
2019-06-20T21:25:23.797Z,98206.88
2019-06-20T21:30:30.534Z,98220.26
2019-06-20T21:35:38.122Z,98227.44
2019-06-20T21:40:44.732Z,98236.12
2019-06-20T21:45:51.351Z,98242.61
2019-06-20T21:50:58.012Z,98250.59
2019-06-20T21:56:04.667Z,98260.70
2019-06-20T22:01:12.102Z,98266.45
2019-06-20T22:06:24.000Z,98273.78
2019-06-20T22:11:28.767Z,98274.48
2019-06-20T22:16:35.426Z,98273.22
2019-06-20T22:21:41.983Z,98271.28
2019-06-20T22:26:48.640Z,98286.04
2019-06-20T22:31:55.287Z,98283.69
2019-06-20T22:37:01.871Z,98286.80
2019-06-20T22:42:08.513Z,98290.86
2019-06-20T22:47:15.160Z,98298.75
2019-06-20T22:52:21.737Z,98304.41
2019-06-20T22:57:28.314Z,98293.30
2019-06-20T23:02:34.874Z,98292.70
2019-06-20T23:07:41.543Z,98297.33
2019-06-20T23:12:48.185Z,98289.57
2019-06-20T23:17:54.599Z,98305.52
2019-06-20T23:23:01.243Z,98290.81
2019-06-20T23:28:07.887Z,98297.72
2019-06-20T23:33:15.520Z,98294.41
2019-06-20T23:38:22.128Z,98296.13
2019-06-20T23:43:28.680Z,98301.91
2019-06-20T23:48:35.099Z,98309.15
2019-06-20T23:53:41.744Z,98309.97
2019-06-20T23:58:48.289Z,98309.45
